Time;durP1;ratioP1;P1;durP2;ratioP2;P2;SDS_P1;SDS_P2;PMS_P1;PMS_P2;Temp;Humidity;BMP_temperature;BMP_pressure;BME280_temperature;BME280_humidity;BME280_pressure;Samples;Min_cycle;Max_cycle;Signal;HPM_P1;HPM_P2
2022/10/23 00:05:34;;;;;;;0.50;0.50;;;12.10;91.50;;;;;;5775839;24;20024;-79
2022/10/23 00:35:50;;;;;;;0.60;0.50;;;12.00;91.50;;;;;;5043122;28;20049;-79
2022/10/23 00:38:26;;;;;;;0.43;0.43;;;12.00;91.50;;;;;;5030581;28;20451;-80
2022/10/23 00:40:57;;;;;;;0.70;0.70;;;12.00;91.50;;;;;;5027278;28;20045;-79
2022/10/23 00:44:11;;;;;;;0.82;0.55;;;12.00;91.60;;;;;;4986153;28;20133;-80
2022/10/23 00:46:38;;;;;;;0.55;0.55;;;12.00;91.60;;;;;;4967006;28;20422;-80
2022/10/23 00:49:05;;;;;;;0.68;0.60;;;12.00;91.60;;;;;;4951250;28;20491;-80
2022/10/23 00:51:39;;;;;;;1.02;0.68;;;12.00;91.60;;;;;;4967153;28;20435;-80
2022/10/23 00:54:06;;;;;;;0.77;0.77;;;12.00;91.60;;;;;;4951607;28;20051;-80
2022/10/23 01:01:03;;;;;;;0.70;0.63;;;12.00;91.60;;;;;;4972703;28;20069;-79
2022/10/23 01:03:49;;;;;;;0.75;0.57;;;12.00;91.60;;;;;;4984390;28;20070;-79
2022/10/23 01:07:05;;;;;;;1.08;0.70;;;12.00;91.70;;;;;;5025156;28;20064;-79
2022/10/23 01:10:29;;;;;;;0.90;0.60;;;12.00;91.70;;;;;;5043780;28;20055;-80
2022/10/23 01:13:23;;;;;;;0.73;0.60;;;12.00;91.70;;;;;;5032294;28;20128;-79
2022/10/23 01:16:36;;;;;;;1.83;0.90;;;12.00;91.70;;;;;;5044470;28;20409;-79
2022/10/23 01:19:52;;;;;;;0.85;0.70;;;12.00;91.70;;;;;;5044530;28;20045;-79
2022/10/23 01:22:44;;;;;;;0.93;0.60;;;11.90;91.60;;;;;;5045858;28;20040;-79
2022/10/23 01:28:54;;;;;;;1.10;0.45;;;12.10;91.70;;;;;;5051274;28;20075;-79
2022/10/23 01:32:11;;;;;;;1.00;0.70;;;12.00;91.70;;;;;;4973729;28;20050;-79
2022/10/23 01:35:08;;;;;;;0.63;0.57;;;12.00;91.70;;;;;;4972182;28;20043;-79
2022/10/23 01:38:01;;;;;;;0.85;0.50;;;12.00;91.70;;;;;;4938836;28;20046;-79
2022/10/23 01:44:21;;;;;;;0.88;0.60;;;11.90;91.70;;;;;;4949269;28;20050;-79
2022/10/23 01:46:55;;;;;;;0.82;0.60;;;12.00;91.70;;;;;;5009018;28;20049;-79
2022/10/23 01:52:45;;;;;;;0.70;0.60;;;11.90;91.70;;;;;;4941409;28;20095;-79
2022/10/23 01:55:23;;;;;;;0.57;0.50;;;12.00;91.70;;;;;;4940362;29;20086;-79
2022/10/23 01:57:50;;;;;;;0.70;0.60;;;12.00;91.70;;;;;;4916042;29;20104;-79
2022/10/23 02:00:19;;;;;;;0.50;0.50;;;12.00;91.70;;;;;;4919774;29;20039;-79
2022/10/23 02:02:48;;;;;;;0.75;0.60;;;12.00;91.70;;;;;;4934082;29;20169;-79
2022/10/23 02:05:20;;;;;;;0.40;0.40;;;11.90;91.70;;;;;;4935486;28;20039;-79
2022/10/23 02:07:46;;;;;;;0.70;0.70;;;11.90;91.70;;;;;;4959309;28;20030;-79
2022/10/23 02:10:13;;;;;;;0.73;0.60;;;11.90;91.80;;;;;;5011394;28;20046;-79
2022/10/23 02:13:03;;;;;;;0.70;0.60;;;11.80;91.80;;;;;;4978636;28;20037;-79
2022/10/23 02:15:35;;;;;;;0.57;0.57;;;11.80;91.80;;;;;;5000157;28;20037;-79
2022/10/23 02:18:26;;;;;;;0.52;0.52;;;11.90;91.80;;;;;;5012855;28;20049;-79
2022/10/23 02:20:57;;;;;;;1.10;0.80;;;11.80;91.80;;;;;;4995550;28;20045;-79
2022/10/23 02:23:36;;;;;;;1.00;0.90;;;11.80;91.80;;;;;;5017514;28;20037;-79
2022/10/23 02:26:18;;;;;;;0.70;0.63;;;11.80;91.90;;;;;;5062990;28;20526;-79
2022/10/23 02:28:49;;;;;;;1.10;0.60;;;11.80;91.90;;;;;;5095240;28;20472;-79
2022/10/23 02:31:16;;;;;;;;;;;11.90;91.90;;;;;;5078665;28;20081;-79
2022/10/23 02:33:45;;;;;;;0.63;0.50;;;11.80;91.80;;;;;;5115973;28;19959;-79
2022/10/23 02:36:11;;;;;;;1.00;0.70;;;11.90;91.80;;;;;;5134054;28;20125;-79
2022/10/23 02:38:40;;;;;;;0.85;0.60;;;11.80;91.80;;;;;;5081809;28;20126;-79
2022/10/23 02:41:35;;;;;;;0.73;0.63;;;11.80;91.80;;;;;;5114867;28;20065;-79
2022/10/23 02:44:16;;;;;;;0.75;0.60;;;11.80;91.80;;;;;;5118505;28;20096;-79
2022/10/23 02:47:10;;;;;;;0.52;0.52;;;11.70;91.90;;;;;;5133576;28;20035;-79
2022/10/23 02:49:55;;;;;;;0.60;0.60;;;11.80;91.90;;;;;;5131459;28;20039;-79
2022/10/23 02:52:44;;;;;;;0.60;0.60;;;11.80;91.90;;;;;;5100042;28;20051;-79
2022/10/23 02:55:39;;;;;;;0.88;0.77;;;11.80;91.90;;;;;;5118084;28;20502;-79
2022/10/23 02:58:18;;;;;;;0.80;0.80;;;11.70;91.90;;;;;;5133654;28;20138;-80
2022/10/23 03:00:51;;;;;;;0.68;0.68;;;11.70;91.90;;;;;;5115006;28;20067;-79
2022/10/23 03:03:25;;;;;;;0.90;0.75;;;11.70;91.90;;;;;;5115442;28;20036;-79
2022/10/23 03:05:51;;;;;;;0.75;0.60;;;11.70;91.90;;;;;;5116509;28;20035;-79
2022/10/23 03:08:17;;;;;;;0.70;0.57;;;11.70;91.90;;;;;;5076957;28;20537;-79
2022/10/23 03:10:43;;;;;;;0.80;0.60;;;11.70;92.00;;;;;;5133403;28;20043;-79
2022/10/23 03:13:10;;;;;;;0.60;0.60;;;11.70;92.00;;;;;;5097886;28;20479;-79
2022/10/23 03:15:35;;;;;;;1.02;0.80;;;11.70;92.00;;;;;;5097878;28;20067;-78
2022/10/23 03:18:01;;;;;;;0.90;0.70;;;11.70;92.00;;;;;;5114968;28;20077;-79
2022/10/23 03:20:27;;;;;;;1.38;0.80;;;11.80;92.00;;;;;;5097827;28;20035;-79
2022/10/23 03:22:53;;;;;;;1.05;0.77;;;11.70;92.00;;;;;;5098044;28;20031;-79
2022/10/23 03:25:19;;;;;;;0.77;0.50;;;11.60;91.90;;;;;;5097696;28;20046;-79
2022/10/23 03:27:44;;;;;;;0.82;0.60;;;11.70;92.00;;;;;;5097549;28;20084;-78
2022/10/23 03:30:10;;;;;;;0.60;0.60;;;11.70;91.90;;;;;;5097699;28;20134;-79
2022/10/23 03:32:36;;;;;;;1.20;1.00;;;11.70;92.00;;;;;;5133245;28;20078;-79
2022/10/23 03:35:03;;;;;;;1.02;0.63;;;11.70;92.00;;;;;;5132997;28;20542;-78
2022/10/23 03:37:31;;;;;;;0.50;0.50;;;11.70;92.00;;;;;;5078195;28;20460;-79
2022/10/23 03:39:57;;;;;;;1.10;0.55;;;11.70;92.00;;;;;;5114574;28;20039;-78
2022/10/23 03:42:22;;;;;;;1.20;0.80;;;11.70;92.00;;;;;;5114805;28;20506;-79
2022/10/23 03:44:51;;;;;;;0.90;0.75;;;11.70;92.00;;;;;;5132914;28;20050;-79
2022/10/23 03:47:16;;;;;;;1.27;0.90;;;11.70;92.00;;;;;;5076373;28;20080;-79
2022/10/23 03:49:42;;;;;;;0.50;0.50;;;11.70;91.90;;;;;;5132934;28;20119;-79
2022/10/23 03:52:08;;;;;;;0.80;0.70;;;11.70;91.90;;;;;;5114254;28;20042;-79
2022/10/23 03:54:34;;;;;;;0.80;0.70;;;11.80;91.90;;;;;;5097118;28;20582;-79
2022/10/23 03:57:00;;;;;;;1.42;0.80;;;11.70;91.90;;;;;;5114169;28;20448;-79
2022/10/23 03:59:26;;;;;;;0.63;0.60;;;11.80;92.00;;;;;;5114325;28;20062;-79
2022/10/23 04:01:55;;;;;;;0.68;0.60;;;11.80;92.00;;;;;;5133052;28;20035;-79
2022/10/23 04:04:20;;;;;;;1.00;0.70;;;11.80;91.90;;;;;;5114457;28;20047;-79
2022/10/23 04:06:46;;;;;;;1.10;0.70;;;11.80;91.90;;;;;;5114635;28;20043;-79
2022/10/23 04:09:12;;;;;;;0.70;0.60;;;11.80;91.90;;;;;;5133457;28;20387;-79
2022/10/23 04:11:37;;;;;;;1.38;0.60;;;11.80;91.90;;;;;;5097905;28;20073;-79
2022/10/23 04:14:03;;;;;;;0.77;0.60;;;11.90;91.90;;;;;;5097237;28;20364;-79
2022/10/23 04:16:29;;;;;;;0.80;0.65;;;11.90;91.90;;;;;;5079328;28;20044;-79
2022/10/23 04:18:55;;;;;;;0.55;0.55;;;11.90;91.90;;;;;;5133249;28;20163;-79
2022/10/23 04:21:20;;;;;;;1.27;0.90;;;12.00;91.90;;;;;;5097233;28;20081;-79
2022/10/23 04:23:46;;;;;;;0.50;0.50;;;12.00;91.90;;;;;;5133194;28;20123;-79
2022/10/23 04:26:12;;;;;;;1.10;0.73;;;12.00;91.90;;;;;;5114220;28;20130;-79
2022/10/23 04:28:38;;;;;;;1.08;0.70;;;12.00;91.90;;;;;;5080266;28;20039;-79
2022/10/23 04:31:04;;;;;;;0.70;0.63;;;12.10;91.90;;;;;;5132851;28;20398;-79
2022/10/23 04:33:30;;;;;;;0.93;0.80;;;12.00;91.80;;;;;;5115045;28;20039;-79
2022/10/23 04:35:55;;;;;;;0.63;0.63;;;12.10;91.90;;;;;;5078557;28;20597;-79
2022/10/23 04:38:21;;;;;;;0.80;0.70;;;12.10;91.90;;;;;;5114564;28;20709;-79
2022/10/23 04:40:47;;;;;;;0.52;0.50;;;11.90;91.80;;;;;;5132640;28;20487;-79
2022/10/23 04:43:12;;;;;;;0.88;0.55;;;12.00;91.90;;;;;;5114293;28;20082;-79
2022/10/23 04:45:38;;;;;;;0.68;0.68;;;12.00;91.90;;;;;;5132875;28;20035;-79
2022/10/23 04:48:04;;;;;;;0.52;0.47;;;12.10;91.90;;;;;;5132961;28;20100;-79
2022/10/23 04:50:30;;;;;;;0.90;0.60;;;12.00;91.90;;;;;;5114044;28;20170;-79
2022/10/23 04:52:57;;;;;;;0.50;0.50;;;12.00;91.90;;;;;;5132525;28;20126;-79
2022/10/23 04:55:24;;;;;;;1.10;0.60;;;12.10;91.90;;;;;;5114231;28;20032;-79
2022/10/23 04:57:51;;;;;;;1.83;0.60;;;12.10;91.90;;;;;;5132287;28;20079;-79
2022/10/23 05:00:17;;;;;;;0.60;0.60;;;12.10;92.00;;;;;;5132652;28;20489;-79
2022/10/23 05:02:43;;;;;;;0.98;0.70;;;12.10;92.00;;;;;;5090921;28;20114;-79
2022/10/23 05:05:10;;;;;;;0.63;0.52;;;12.10;92.20;;;;;;5100394;28;20680;-79
2022/10/23 05:07:36;;;;;;;0.65;0.47;;;12.10;92.00;;;;;;5135782;28;20549;-79
2022/10/23 05:10:03;;;;;;;0.65;0.60;;;12.10;92.00;;;;;;5135908;28;20074;-79
2022/10/23 05:12:29;;;;;;;1.42;0.45;;;12.10;92.00;;;;;;5100667;28;20050;-79
2022/10/23 05:14:55;;;;;;;0.90;0.60;;;12.10;92.00;;;;;;5135634;28;20039;-79
2022/10/23 05:17:28;;;;;;;0.63;0.55;;;12.10;92.00;;;;;;5136043;28;20047;-79
2022/10/23 05:19:56;;;;;;;0.60;0.55;;;12.10;92.00;;;;;;5117117;28;20035;-79
2022/10/23 05:22:25;;;;;;;0.60;0.55;;;12.10;92.00;;;;;;5135513;28;20160;-79
2022/10/23 05:24:52;;;;;;;0.40;0.40;;;12.10;92.00;;;;;;5135981;28;20126;-79
2022/10/23 05:27:18;;;;;;;0.40;0.40;;;12.10;92.00;;;;;;5100002;28;20108;-79
2022/10/23 05:29:44;;;;;;;0.75;0.63;;;12.10;92.00;;;;;;5135320;28;20086;-79
2022/10/23 05:32:13;;;;;;;1.35;0.55;;;12.10;92.00;;;;;;5135976;28;20035;-79
2022/10/23 05:34:40;;;;;;;0.82;0.50;;;12.10;92.00;;;;;;5065533;28;20062;-79
2022/10/23 05:37:09;;;;;;;0.85;0.52;;;12.20;92.10;;;;;;5099894;28;20031;-79
2022/10/23 05:39:35;;;;;;;0.52;0.50;;;12.10;92.00;;;;;;5100248;28;20066;-79
2022/10/23 05:42:01;;;;;;;0.80;0.60;;;12.20;92.10;;;;;;5135158;28;20046;-79
2022/10/23 05:44:27;;;;;;;0.30;0.30;;;12.20;92.00;;;;;;5135042;28;20034;-80
2022/10/23 05:46:53;;;;;;;0.35;0.35;;;12.20;92.00;;;;;;5135173;28;20122;-79
2022/10/23 05:49:19;;;;;;;1.10;0.55;;;12.20;92.00;;;;;;5100074;28;20134;-79
2022/10/23 05:51:44;;;;;;;0.60;0.40;;;12.30;92.00;;;;;;5135391;28;20042;-79
2022/10/23 05:54:10;;;;;;;0.90;0.50;;;12.30;92.00;;;;;;5135073;28;20062;-79
2022/10/23 05:56:40;;;;;;;0.80;0.57;;;12.40;92.00;;;;;;5099408;28;20095;-79
2022/10/23 05:59:06;;;;;;;1.05;0.80;;;12.30;92.00;;;;;;5116503;28;20529;-79
2022/10/23 06:01:32;;;;;;;0.68;0.50;;;12.40;92.00;;;;;;5117119;28;20051;-79
2022/10/23 06:03:59;;;;;;;0.73;0.52;;;12.40;92.00;;;;;;5099652;28;20517;-79
2022/10/23 06:06:25;;;;;;;1.48;0.60;;;12.40;92.00;;;;;;5135132;28;20043;-79
2022/10/23 06:08:51;;;;;;;0.50;0.50;;;12.40;92.00;;;;;;5135879;28;20042;-79
2022/10/23 06:11:17;;;;;;;0.47;0.47;;;12.40;92.00;;;;;;5099477;28;20049;-79
2022/10/23 06:13:45;;;;;;;1.00;0.70;;;12.40;92.00;;;;;;5116119;27;20043;-79
2022/10/23 06:16:15;;;;;;;1.55;0.65;;;12.50;92.00;;;;;;5099497;28;20047;-79
2022/10/23 06:18:41;;;;;;;0.80;0.50;;;12.50;92.00;;;;;;5099225;28;20058;-79
2022/10/23 06:21:07;;;;;;;0.60;0.60;;;12.40;92.00;;;;;;5099731;28;20410;-79
2022/10/23 06:23:35;;;;;;;0.73;0.60;;;12.50;92.00;;;;;;5116367;28;20486;-79
2022/10/23 06:26:01;;;;;;;0.60;0.60;;;12.50;92.00;;;;;;5116267;28;20095;-79
2022/10/23 06:28:27;;;;;;;0.65;0.50;;;12.50;92.00;;;;;;5099301;28;20124;-79
2022/10/23 06:30:53;;;;;;;0.60;0.50;;;12.50;92.00;;;;;;5134390;28;20046;-79
2022/10/23 06:33:19;;;;;;;0.50;0.50;;;12.40;92.00;;;;;;5134926;28;20050;-79
2022/10/23 06:35:45;;;;;;;0.68;0.60;;;12.60;92.00;;;;;;5116720;28;20482;-79
2022/10/23 06:38:11;;;;;;;0.40;0.40;;;12.60;92.00;;;;;;5099093;28;20035;-79
2022/10/23 06:40:37;;;;;;;1.15;0.70;;;12.60;92.00;;;;;;5116716;28;20399;-79
2022/10/23 06:43:04;;;;;;;0.57;0.52;;;12.60;92.00;;;;;;5134181;28;20440;-79
2022/10/23 06:45:32;;;;;;;1.35;0.70;;;12.60;92.00;;;;;;5115780;28;20039;-79
2022/10/23 06:47:58;;;;;;;0.85;0.63;;;12.80;92.10;;;;;;5134405;28;20035;-79
2022/10/23 06:50:24;;;;;;;0.85;0.70;;;12.60;92.00;;;;;;5115950;28;20035;-79
2022/10/23 06:52:50;;;;;;;0.30;0.30;;;12.70;92.00;;;;;;5116292;28;20524;-79
2022/10/23 06:55:17;;;;;;;0.40;0.40;;;12.70;92.00;;;;;;5133846;28;20031;-79
2022/10/23 06:57:43;;;;;;;0.70;0.70;;;12.70;92.00;;;;;;5134187;28;20074;-79
2022/10/23 07:00:09;;;;;;;1.13;0.60;;;12.70;92.00;;;;;;5134056;28;20070;-80
2022/10/23 07:02:38;;;;;;;0.50;0.50;;;12.70;92.00;;;;;;5087956;28;20468;-79
2022/10/23 07:05:04;;;;;;;0.57;0.40;;;12.80;92.00;;;;;;5115509;28;20527;-79
2022/10/23 07:07:30;;;;;;;0.95;0.60;;;12.80;92.00;;;;;;5115566;28;20053;-80
2022/10/23 07:09:55;;;;;;;0.65;0.55;;;12.80;92.00;;;;;;5115823;28;20189;-79
2022/10/23 07:12:21;;;;;;;0.52;0.47;;;12.80;92.00;;;;;;5134246;28;20038;-79
2022/10/23 07:14:47;;;;;;;0.88;0.52;;;12.80;92.00;;;;;;5098523;28;20047;-80
2022/10/23 07:17:13;;;;;;;0.63;0.60;;;12.90;92.00;;;;;;5018860;28;20046;-79
2022/10/23 07:19:39;;;;;;;0.40;0.40;;;12.80;92.00;;;;;;4993798;28;21455;-80
2022/10/23 07:22:05;;;;;;;0.93;0.35;;;12.90;92.00;;;;;;4995002;28;20045;-80
2022/10/23 07:24:35;;;;;;;0.93;0.60;;;12.90;92.00;;;;;;4975123;28;20511;-79
2022/10/23 07:27:02;;;;;;;0.40;0.40;;;12.90;92.00;;;;;;4974868;28;20042;-79
2022/10/23 07:29:28;;;;;;;0.80;0.60;;;13.00;92.00;;;;;;4974954;28;20104;-79
2022/10/23 07:31:53;;;;;;;0.40;0.40;;;13.00;92.00;;;;;;4975119;28;20545;-80
2022/10/23 07:34:19;;;;;;;0.50;0.50;;;13.00;92.00;;;;;;4974894;28;20168;-80
2022/10/23 07:36:45;;;;;;;0.80;0.50;;;13.00;92.00;;;;;;4991056;28;20050;-80
2022/10/23 07:39:11;;;;;;;0.40;0.40;;;13.10;92.00;;;;;;4974816;28;20141;-80
2022/10/23 07:41:37;;;;;;;0.52;0.43;;;13.10;92.00;;;;;;4974649;28;20064;-80
2022/10/23 07:44:03;;;;;;;0.40;0.40;;;13.10;92.20;;;;;;4974552;28;20112;-80
2022/10/23 07:46:28;;;;;;;0.32;0.30;;;13.10;92.20;;;;;;4958520;28;20462;-79
2022/10/23 07:48:54;;;;;;;1.25;0.68;;;13.20;92.00;;;;;;5034599;28;20040;-80
2022/10/23 07:51:22;;;;;;;1.00;0.73;;;13.30;92.00;;;;;;5090784;28;20531;-80
2022/10/23 07:53:48;;;;;;;0.50;0.50;;;13.30;91.90;;;;;;5073143;28;20047;-80
2022/10/23 07:56:19;;;;;;;0.50;0.50;;;13.30;91.90;;;;;;5111162;28;20428;-80
2022/10/23 07:58:45;;;;;;;0.75;0.30;;;13.40;91.90;;;;;;5097811;28;20047;-80
2022/10/23 08:01:36;;;;;;;2.00;0.60;;;13.20;91.80;;;;;;5097575;28;20035;-80
2022/10/23 08:04:05;;;;;;;0.60;0.60;;;13.40;91.80;;;;;;5085909;28;20057;-80
2022/10/23 08:06:31;;;;;;;0.47;0.40;;;13.50;91.80;;;;;;5114518;28;20042;-80
2022/10/23 08:08:57;;;;;;;0.65;0.55;;;13.40;91.80;;;;;;5132907;28;20050;-80
2022/10/23 08:11:26;;;;;;;0.77;0.50;;;13.50;91.80;;;;;;5080750;28;20043;-81
2022/10/23 08:13:54;;;;;;;0.50;0.43;;;13.60;91.80;;;;;;5094492;28;20419;-80
2022/10/23 08:16:21;;;;;;;0.55;0.40;;;13.60;91.80;;;;;;5093901;28;20055;-80
2022/10/23 08:18:48;;;;;;;0.50;0.50;;;13.60;91.80;;;;;;5099356;28;20050;-80
2022/10/23 08:21:14;;;;;;;1.10;0.40;;;13.60;91.80;;;;;;5114534;28;20489;-81
2022/10/23 08:23:40;;;;;;;0.82;0.50;;;13.70;91.80;;;;;;5096183;28;20123;-80
2022/10/23 08:26:06;;;;;;;0.73;0.50;;;13.70;91.80;;;;;;5097783;28;20124;-81
2022/10/23 08:28:32;;;;;;;0.50;0.43;;;13.70;92.10;;;;;;5114519;28;20036;-80
2022/10/23 08:30:58;;;;;;;0.73;0.57;;;13.80;91.80;;;;;;5097456;28;20027;-81
2022/10/23 08:33:24;;;;;;;0.50;0.50;;;13.80;91.80;;;;;;5133566;28;20463;-81
2022/10/23 08:35:50;;;;;;;1.02;0.50;;;13.90;91.80;;;;;;5114798;28;20047;-81
2022/10/23 08:38:16;;;;;;;1.08;0.63;;;13.90;91.80;;;;;;5115376;28;20122;-81
2022/10/23 08:40:45;;;;;;;1.17;0.52;;;13.90;91.70;;;;;;5136550;28;20519;-81
2022/10/23 08:43:26;;;;;;;0.32;0.30;;;14.00;91.70;;;;;;5117736;28;20092;-82
2022/10/23 08:45:57;;;;;;;1.00;0.40;;;14.00;91.70;;;;;;5136474;28;20456;-82
2022/10/23 08:48:38;;;;;;;0.30;0.30;;;14.10;91.70;;;;;;5118060;28;20081;-82
2022/10/23 08:51:20;;;;;;;0.77;0.50;;;14.20;91.70;;;;;;5100611;28;20091;-82
2022/10/23 08:53:55;;;;;;;0.32;0.32;;;14.20;91.60;;;;;;5104118;28;20127;-82
2022/10/23 08:56:43;;;;;;;0.40;0.40;;;14.30;91.60;;;;;;5136308;28;20047;-81
2022/10/23 08:59:33;;;;;;;0.30;0.30;;;14.30;91.60;;;;;;5100370;28;20446;-81
2022/10/23 09:02:15;;;;;;;0.32;0.32;;;14.40;91.60;;;;;;5083920;28;20464;-82
2022/10/23 09:08:00;;;;;;;0.38;0.38;;;14.50;91.60;;;;;;5072336;28;20393;-81
2022/10/23 09:10:56;;;;;;;0.60;0.43;;;14.50;91.50;;;;;;5038857;28;20093;-82
2022/10/23 09:13:52;;;;;;;0.60;0.43;;;14.60;91.50;;;;;;5038961;28;20107;-81
2022/10/23 09:16:42;;;;;;;0.98;0.52;;;14.70;91.50;;;;;;5056710;28;20044;-82
2022/10/23 09:19:15;;;;;;;0.40;0.40;;;14.70;91.40;;;;;;5055225;28;20056;-82
2022/10/23 09:21:48;;;;;;;0.40;0.40;;;14.80;91.40;;;;;;5055812;28;20079;-82
2022/10/23 09:24:16;;;;;;;0.60;0.40;;;14.80;91.40;;;;;;5040092;28;20258;-82
2022/10/23 09:26:47;;;;;;;0.45;0.45;;;14.80;91.40;;;;;;5039337;28;20079;-82
2022/10/23 09:29:23;;;;;;;0.60;0.50;;;14.90;91.40;;;;;;5039391;28;20439;-82
2022/10/23 09:31:54;;;;;;;0.40;0.40;;;14.90;91.40;;;;;;5054173;28;20444;-81
2022/10/23 09:34:25;;;;;;;0.47;0.47;;;14.90;91.40;;;;;;5072422;28;20131;-81
2022/10/23 09:36:54;;;;;;;0.77;0.43;;;14.90;91.40;;;;;;5055398;28;20385;-82
2022/10/23 09:39:23;;;;;;;0.75;0.60;;;14.90;91.40;;;;;;5063481;28;20040;-82
2022/10/23 09:41:49;;;;;;;0.52;0.38;;;15.10;91.40;;;;;;5100325;28;20039;-82
2022/10/23 09:44:19;;;;;;;0.50;0.50;;;15.00;91.40;;;;;;5116954;28;20513;-82
2022/10/23 09:46:50;;;;;;;0.80;0.47;;;15.10;91.40;;;;;;5096283;28;20395;-82
2022/10/23 09:49:19;;;;;;;0.40;0.40;;;15.10;91.40;;;;;;5095817;28;20442;-82
2022/10/23 09:51:54;;;;;;;0.25;0.25;;;15.20;91.40;;;;;;5100085;28;20550;-82
2022/10/23 09:54:22;;;;;;;0.38;0.38;;;15.20;91.40;;;;;;5135237;28;20062;-82
2022/10/23 09:56:50;;;;;;;0.95;0.50;;;15.30;91.40;;;;;;5116351;28;20118;-82
2022/10/23 09:59:25;;;;;;;0.68;0.30;;;15.30;91.40;;;;;;5054862;28;20040;-83
2022/10/23 10:01:57;;;;;;;0.60;0.50;;;15.30;91.40;;;;;;5022853;28;20090;-82
2022/10/23 10:04:33;;;;;;;0.90;0.47;;;15.30;91.30;;;;;;5053743;28;20047;-82
2022/10/23 10:07:00;;;;;;;0.45;0.40;;;15.50;91.30;;;;;;5022533;28;20044;-82
2022/10/23 10:09:26;;;;;;;0.85;0.40;;;15.40;91.30;;;;;;5054865;28;20036;-82
2022/10/23 10:11:58;;;;;;;0.38;0.38;;;15.40;91.30;;;;;;5054888;28;20059;-82
2022/10/23 10:14:58;;;;;;;0.95;0.40;;;15.50;91.30;;;;;;5053296;28;20040;-83
2022/10/23 10:17:59;;;;;;;0.65;0.45;;;15.60;91.30;;;;;;5069933;28;20065;-81
2022/10/23 10:21:02;;;;;;;0.28;0.28;;;15.60;91.30;;;;;;5053209;28;20045;-82
2022/10/23 10:23:52;;;;;;;0.55;0.40;;;15.70;91.20;;;;;;5053518;28;20040;-82
2022/10/23 10:26:37;;;;;;;0.52;0.50;;;15.80;91.20;;;;;;5039336;28;20380;-82
2022/10/23 10:29:24;;;;;;;0.40;0.40;;;15.80;91.20;;;;;;5071512;28;20076;-82
2022/10/23 10:32:09;;;;;;;0.75;0.50;;;15.80;91.10;;;;;;5095306;28;20114;-82
2022/10/23 10:34:50;;;;;;;0.60;0.40;;;15.90;91.10;;;;;;5117876;28;20486;-82
2022/10/23 10:37:41;;;;;;;1.25;0.38;;;16.00;91.10;;;;;;5116388;28;20046;-82
2022/10/23 10:40:26;;;;;;;0.38;0.30;;;16.00;91.10;;;;;;5116463;28;20043;-82
2022/10/23 10:43:19;;;;;;;0.75;0.40;;;16.00;91.00;;;;;;5117234;28;20503;-82
2022/10/23 10:45:47;;;;;;;0.30;0.30;;;16.10;91.10;;;;;;5098355;28;20039;-83
2022/10/23 10:48:30;;;;;;;0.82;0.55;;;16.00;91.00;;;;;;5116045;28;20069;-82
2022/10/23 10:51:06;;;;;;;0.40;0.40;;;16.10;91.00;;;;;;5083898;28;20043;-82
2022/10/23 10:53:51;;;;;;;0.32;0.30;;;16.10;91.00;;;;;;5097598;28;20067;-82
2022/10/23 10:56:19;;;;;;;0.70;0.40;;;16.20;91.00;;;;;;5115784;28;20083;-83
2022/10/23 10:58:57;;;;;;;0.73;0.40;;;16.20;91.00;;;;;;5116054;28;20451;-82
2022/10/23 11:01:41;;;;;;;0.40;0.40;;;16.20;91.00;;;;;;5115002;28;20043;-82
2022/10/23 11:04:34;;;;;;;0.45;0.40;;;16.20;91.00;;;;;;5133903;28;20126;-82
2022/10/23 11:07:07;;;;;;;0.50;0.40;;;16.30;91.00;;;;;;5081319;28;20051;-83
2022/10/23 11:09:33;;;;;;;0.68;0.47;;;16.40;91.00;;;;;;5115445;28;20043;-83
2022/10/23 11:11:59;;;;;;;0.80;0.50;;;16.40;91.00;;;;;;5133836;28;20046;-82
2022/10/23 11:14:29;;;;;;;0.98;0.60;;;16.40;90.90;;;;;;5115762;28;20071;-83
2022/10/23 11:17:06;;;;;;;0.63;0.40;;;16.50;90.90;;;;;;5073575;28;20044;-82
2022/10/23 11:19:39;;;;;;;0.45;0.30;;;16.60;90.90;;;;;;5133986;28;20115;-83
2022/10/23 11:22:23;;;;;;;0.40;0.40;;;16.40;90.80;;;;;;5081864;28;20134;-82
2022/10/23 11:25:24;;;;;;;0.63;0.50;;;16.60;90.80;;;;;;5117512;28;20043;-83
2022/10/23 11:28:15;;;;;;;0.40;0.40;;;16.60;90.80;;;;;;5115274;28;20046;-83
2022/10/23 11:31:14;;;;;;;0.40;0.30;;;16.60;90.80;;;;;;5133746;28;20482;-83
2022/10/23 11:34:03;;;;;;;0.52;0.40;;;16.70;90.80;;;;;;5132808;28;20051;-82
2022/10/23 11:36:42;;;;;;;0.57;0.40;;;16.80;90.70;;;;;;5077482;28;20036;-82
2022/10/23 11:39:28;;;;;;;0.55;0.40;;;16.80;90.70;;;;;;5115479;28;20047;-82
2022/10/23 11:42:10;;;;;;;0.75;0.40;;;17.00;90.70;;;;;;5098078;28;20039;-82
2022/10/23 11:44:41;;;;;;;0.65;0.40;;;17.00;90.60;;;;;;5114807;28;20039;-82
2022/10/23 11:47:34;;;;;;;1.08;0.70;;;16.90;90.50;;;;;;5098268;28;20129;-82
2022/10/23 11:50:30;;;;;;;0.30;0.30;;;17.10;90.50;;;;;;5114919;28;20038;-83
2022/10/23 11:53:05;;;;;;;0.50;0.40;;;17.10;90.40;;;;;;5133656;28;20130;-82
2022/10/23 11:55:31;;;;;;;0.52;0.40;;;17.10;90.40;;;;;;5116090;28;20126;-83
2022/10/23 11:58:19;;;;;;;0.73;0.50;;;17.20;90.40;;;;;;5133321;28;20035;-82
2022/10/23 12:01:02;;;;;;;0.43;0.40;;;17.20;90.40;;;;;;5099360;28;20051;-82
2022/10/23 12:03:38;;;;;;;0.47;0.40;;;17.20;90.30;;;;;;5097738;28;20039;-82
2022/10/23 12:06:05;;;;;;;0.35;0.35;;;17.30;90.40;;;;;;5115023;28;20043;-83
2022/10/23 12:08:34;;;;;;;0.85;0.57;;;17.50;90.30;;;;;;5081111;28;20050;-82
2022/10/23 12:11:00;;;;;;;0.30;0.30;;;17.40;90.30;;;;;;5114965;28;20140;-82
2022/10/23 12:13:44;;;;;;;0.43;0.40;;;17.50;90.30;;;;;;5098002;28;20443;-83
2022/10/23 12:16:10;;;;;;;0.30;0.30;;;17.60;90.20;;;;;;5095834;28;20040;-82
2022/10/23 12:18:51;;;;;;;1.10;0.57;;;17.60;90.20;;;;;;5098069;28;20074;-82
2022/10/23 12:21:18;;;;;;;;;;;17.60;90.10;;;;;;5115714;28;20038;-82
2022/10/23 12:24:12;;;;;;;0.47;0.40;;;17.70;90.10;;;;;;5114364;28;20312;-82
2022/10/23 12:27:08;;;;;;;0.40;0.40;;;17.70;90.00;;;;;;5117471;28;20099;-82
2022/10/23 12:29:47;;;;;;;0.43;0.32;;;17.80;90.00;;;;;;5093448;28;20040;-82
2022/10/23 12:32:41;;;;;;;0.40;0.40;;;17.80;90.00;;;;;;5098471;28;20043;-82
2022/10/23 12:35:32;;;;;;;0.88;0.47;;;17.90;90.00;;;;;;5117417;28;20046;-82
2022/10/23 12:38:09;;;;;;;;;;;18.00;90.00;;;;;;5132706;28;20126;-82
2022/10/23 12:40:35;;;;;;;0.47;0.40;;;17.90;89.90;;;;;;5114054;28;19911;-82
2022/10/23 12:43:01;;;;;;;0.32;0.32;;;18.00;90.00;;;;;;5097134;28;20375;-82
2022/10/23 12:45:35;;;;;;;0.85;0.55;;;18.00;90.00;;;;;;5113995;28;20184;-82
2022/10/23 12:48:01;;;;;;;1.70;0.50;;;18.00;89.90;;;;;;5080895;28;20040;-82
2022/10/23 12:50:30;;;;;;;1.10;0.50;;;18.00;89.90;;;;;;5097103;28;20081;-82
2022/10/23 12:53:02;;;;;;;0.68;0.52;;;18.10;90.00;;;;;;5114050;28;20127;-82
2022/10/23 12:55:47;;;;;;;0.52;0.40;;;18.10;89.90;;;;;;5081163;28;20046;-82
2022/10/23 12:58:36;;;;;;;0.73;0.50;;;18.20;89.90;;;;;;5114188;28;20092;-82
2022/10/23 13:01:05;;;;;;;0.73;0.50;;;18.20;89.90;;;;;;5114746;28;20122;-81
2022/10/23 13:03:32;;;;;;;0.35;0.30;;;18.20;89.80;;;;;;5069266;28;20122;-81
2022/10/23 13:06:03;;;;;;;1.08;0.50;;;18.20;89.70;;;;;;5019926;28;20037;-81
2022/10/23 13:08:43;;;;;;;0.40;0.40;;;18.30;89.70;;;;;;5019973;28;20428;-81
2022/10/23 13:11:15;;;;;;;0.50;0.50;;;18.40;89.80;;;;;;5053037;28;20131;-81
2022/10/23 13:13:45;;;;;;;0.47;0.40;;;18.20;89.60;;;;;;5050724;28;20048;-81
2022/10/23 13:16:14;;;;;;;0.55;0.40;;;18.40;89.80;;;;;;5069327;28;20041;-81
2022/10/23 13:18:41;;;;;;;1.00;0.40;;;18.40;89.70;;;;;;5069163;28;20083;-81
2022/10/23 13:21:16;;;;;;;0.47;0.30;;;18.40;89.70;;;;;;5035814;28;20536;-81
2022/10/23 13:23:42;;;;;;;0.68;0.40;;;18.30;89.70;;;;;;5051937;28;20048;-81
2022/10/23 13:26:29;;;;;;;0.32;0.32;;;18.40;89.80;;;;;;5055817;28;20069;-81
2022/10/23 13:28:56;;;;;;;0.30;0.30;;;18.40;89.80;;;;;;5072246;28;20048;-81
2022/10/23 13:31:32;;;;;;;0.40;0.40;;;18.30;89.70;;;;;;5056042;28;20519;-81
2022/10/23 13:34:16;;;;;;;0.30;0.30;;;18.40;89.70;;;;;;5088717;28;20035;-81
2022/10/23 13:36:51;;;;;;;1.05;0.50;;;18.40;89.70;;;;;;5117622;28;20099;-81
2022/10/23 13:39:23;;;;;;;0.47;0.30;;;18.40;89.70;;;;;;5117742;28;20038;-80
2022/10/23 13:41:49;;;;;;;0.30;0.30;;;18.40;89.70;;;;;;5135519;28;20035;-81
2022/10/23 13:44:18;;;;;;;0.80;0.30;;;18.30;89.70;;;;;;5135418;28;20539;-81
2022/10/23 13:46:44;;;;;;;0.20;0.20;;;18.30;89.70;;;;;;5100249;28;20098;-80
2022/10/23 13:49:10;;;;;;;0.40;0.35;;;18.30;89.70;;;;;;5117304;28;20054;-81
2022/10/23 13:51:41;;;;;;;0.40;0.40;;;18.30;89.70;;;;;;5100043;28;20039;-80
2022/10/23 13:54:12;;;;;;;;;;;18.50;89.80;;;;;;5117416;28;20063;-81
2022/10/23 13:56:40;;;;;;;0.28;0.20;;;18.40;89.70;;;;;;5116882;28;19911;-80
2022/10/23 13:59:09;;;;;;;0.80;0.47;;;18.40;89.70;;;;;;5116786;28;20035;-81
2022/10/23 14:01:35;;;;;;;0.20;0.20;;;18.30;89.60;;;;;;5100248;28;20050;-80
2022/10/23 14:04:03;;;;;;;0.20;0.20;;;18.30;89.60;;;;;;5076518;28;20127;-81
2022/10/23 14:06:29;;;;;;;0.30;0.30;;;18.40;89.70;;;;;;5085291;28;20039;-81
2022/10/23 14:08:56;;;;;;;0.20;0.20;;;18.40;90.10;;;;;;5054827;28;20044;-81